Ilmailusää

METAR = EFUT 231220Z VRB04KT 9999 -TSRA BKN065CB 21/09 Q1019

STATION........ EFUT
OBSERVED....... Wed May 23, 15:20 EEST
NOW............ Wed May 23, 15:34 EEST
AGE............ 14 min ago
WIND........... varies at 5 mph
VISIBILITY..... 16 miles
CONDITIONS..... light thunderstorm rain
CLOUDS......... mostly cloudy
TEMP........... 70°F (21°C)
DEWPT.......... 48°F (9°C)
HUMIDITY....... 46%
BAROMETER...... 1019 hPa (30.09 in Hg)

Lookup Station EFUT Info

Get weather info from station:           

METAR-sanoman tulkitseminen

Tyypillinen METAR-sanoma on esimerkiksi seuraavanlainen:
EFUT 301250Z AUTO 27006KT 9999 +RA BKN012 03/02 Q1006
Tämä sanoma voidaan jakaa osioihin ja tulkita sen perusteella. METAR-sanoman [pääosiot] ovat:

EFUT [Sääasema] Ilmoittaa lentopaikan ICAO-koodina
301250Z [Aika (UTC)] Päivä kuluvaa kuukautta sekä kellonaika UTC:nä
AUTO [Tyyppi] Ilmoitetaan vain, jos säänmittausasema on automaattinen
27006KT [Tuuli] Tuulen suunta asteina ja nopeus solmuina (kts)
9999 [Näkyvyys] Näkyvyys metreinä (m)
+RA [Vallitseva sää] Sääilmiöt kuten sade tai ukkonen yms.
BKN012 [Pilvet] Pilven tyyppi sekä korkeus x 100 jalkoina (ft)
03/02 [Lämpö/Kaste] Lämpötila ja kastepiste Celsius-asteina (C°)
Q1006 [Ilmanpaine] Ilmanpaine millibareina (mb) / hehtopascaleina (hPA)
[Lisätiedot] Mahdolliset muut huomioitavat asiat kerrotaan METAR-sanoman lopussa

Tuuli

METAR-sanomassa tuulen suunta ilmoitetaan kolmella numerolla, lähimpään 10 solmuun pyöristettynä. Tuulen nopeuden yksikkönä käytetään solmua (KT). Tuulen ollessa tyyni, ilmoitetaan se METAR-sanomassa 00000KT. Maksimituulen (puuskat) nopeus ilmoitetaan keskituulen nopeuden jälkeen ja näiden koodilukujen väliin tulee kirjain G.

Esimerkkejä tuulen ilmoittamisesta:

Näkyvyys

Vallitseva meteorologinen näkyvyys ilmoitetaan metreinä neljällä numerolla. Jos näkyvyys on yli 10 kilometriä, kerrotaan se numeroin 9999. Mikäli näkyvyys on huono, ja lentoasemalla on kyky mitata kiitotienäkyvyys (RVR - Runway Visual Range) ilmoitetaan se myös tässä yhteydessä.

Esimerkkejä näkyvyyden ilmoittamisesta:

Kiitotienäkyvyys, RVR

Kuten aiemmassa kappaleessa todettiin, ilmoitetaan RVR-arvo, jos näkyvyys on hyvin huono. Viimeisimmän RVR-arvon lentäjä saa aina lennonjohtajalta, joka voi kertoa sen lennonjohdossa olevien näyttölaitteiden kautta. Ivao-verkossa kuitenkin ainoa keino RVR:n määrittämiseen / ilmoittamiseen on METAR-sanoma.

RVR ilmoitetaan seuraavasti: 0300 R12/0550V0800D R30/0325N

Ensimmäisenä on ilmoitettu normaali meteorologinen näkyvyys (300 metriä), ja tätä seuraa RVR-arvot lentoaseman kiitoteille. RVR-arvo ilmoitetaan muodossa "kiitotie/rvr" ja sitä edeltää R-kirjain, eli R30/0325 tarkoittaa kiitotien 30 RVR-arvoa 325 metriä. Samaan voidaan myös liittää kirjaintunnus, joka kuvaa kiitotienäkyvyyden muutosta. Nämä kirjaimet ovat N (ei muutosta), D (huononee), U (paranee). Myös näkyvyyden vaihteluväli voidaan ilmoittaa V-kirjaimella. Jos RVR on yli 1500 metriä, ei sitä ilmoiteta.

Ylläolevasta esimerkistä voimme tulkita, että meteorologinen näkyvyys on 300 metriä. Kiitotien 12 RVR-arvo vaihtelee 550 ja 800 metrin välillä ja sen on ennustettu huonontuvan. Kiitotien RVR-arvo on 325 metriä ja sen ei ole ennustettu muuttuvan.

Huonossa näkyvyydessä RVR-arvo on lentäjille tärkeä tieto, koska jokainen lähestymismenetelmä sisältää tiedon miniminäkyvyydestä ja lähestymistä ei saa aloittaa, jos näkyvyys on tätä minimiä huonompi. Mikäli RVR-arvoa ei ole ilmoitettu, voidaan se laskukaavalla saada normaalista näkyvyysarvosta, mutta tämä on lentäjän tehtävä. Normaalissa kategoria 1:n ILS-lähestymisessä RVR:n tulee olla vähintään 550 metriä.

Vallitseva sää

METAR-sanomassa ilmoitetaan sääilmiöt, kuten sumu, sade, lumisade, ukkonen ja muut vastaavat säähän vaikuttavat tekijät. Allaolevia sääilmiöitä voidaan myös yhdistellä, esimerkiksi RASN (vettä ja lunta) tarkoittaa räntäsadetta.

Sääilmiön voimakkuus

(-) - heikko
(ei etumerkkiä) - kohtalainen
(+) - voimakas

Sääilmiön tyyppi
MI - matalaa
BC - hattaroita
PR - osittain
DR - matalaa
BL - korkeaa
SH - kuurottaista
TS - ukkosta
FZ - jäätävää
Sadeilmiöt
DZ - tihkusadetta
RA - vesisadetta
SN - lumisadetta
SG - lumijyväsiä
IC - jääneulasia
PE - jääjyväsiä
GR - rakeita
GS - pikkurakeita
Näkyvyysilmiöt
BR - utua
FG - sumua
FU - savua
VA - vulkaanista tuhkaa
DU - pölyä, tomua
SA - hiekkaa
HZ - auerta
Muut sääilmiöt
PO - pölypyörteitä
SQ - tuulenpuuskia
FC - pyörremyrsky
SS - hiekkamyrsky
DS - tomumyrsky

Esimerkkejä vallitsevan sään ilmoittamisesta:

Pilvet

METAR-sanomassa pilven alaraja ilmoitetaan lyhennetysti jättämällä korkeuden kaksi viimeistä nollaa pois. Esimerkiksi pilven alaraja 300ft kirjoitetaan METARissa 003, 3000ft kirjoitetaan 030 ja 30 000 ft kirjoitetaan 300. Korkeus ilmoitetaan maanpinnasta (AGL).
Pilven määrä ilmoitetaan kolmen kirjaimen tunnuksella, joka kuvaa pilven tyyppiä. Tunnuskirjaimia käytetään seuraavasti:

0/8 SKC - sky clear (selkeää)
1/8-2/8 FEW - few (vähän pilviä)
3/8-4/8 SCT - scattered (hajanaista pilveä)
5/8-6/8 BKN - broken (melkein pilvistä)
7/8-8/8 OVC - overcast (pilvistä)

Pilvestä voidaan ilmoittaa myös lisämääreet CB ja TCU:

Nämä pilvityypit ilmoitetaan METAR-sanomassa, koska lentäjien tulee välttää lentämästä näihin pilviin niiden sisältämän kovan turbulenssin vuoksi.

Sumuisissa olosuhteissa, jolloin pilviä ei voi nähdä, raportoidaan pystysuora näkyvyys VV-koodilla. esimerkiksi VV003 = pystysuora näkyvyys 300 jalkaa. Jos sumu on niin sankkaa, että mittausta ei voida suorittaa, voi METARissa olla koodi VV///.

Esimerkkejä pilvien ilmoittamisesta:

CAVOK-koodi

Koodisana CAVOK on lyhenne englannin kielen sanoista "Ceiling And Visibility OK". Sitä tulee käyttää, mikäli kaikki seuraavat ehdot ovat voimassa samanaikaisesti: Näkyvyys on 10 km tai enemmän. Alueella ei ole mitään pilviä 1500 m (5000ft) alapuolella, eikä CB tai TCU -pilviä havaita. Ei esiinny mitään sääilmiöitä, kuten ukkosta, sadetta tai sumua.

Esimerkki METAR-sanomasta CAVOK-koodin kanssa:

EFUT 301250Z 21014KT CAVOK 01/M05 Q1011

Lämpötila ja kastepiste

Lämpötila- ja kastepistelukemassa on aina kaksi numeroa. Luvun ollessa pienempi kuin 10 lisätään luvun eteen etunolla. Lämpötilan tai kastepisteen arvon ollessa pienempi kuin 0 celsiusastetta lisätään luvun eteen kirjain M (miinus) ilman välilyöntiä.

Esimerkkejä lämpötilan ja kastepisteen ilmoittamisesta:

Ilmanpaine

Metar-tiedoissa ilmoitettava ilmanpaine on korkeusmittarin asetus, jota lentäjien tulee käyttää lentäessään alle siirtokorkeuden / siirtopinnan ko.lentoaseman läheisyydessä. Tämä ilmanpaineasetus on nimeltään QNH (lausutaan suomeksi "kuu-än-hoo").

QNH ilmoitetaan sääsanomassa aina neljällä numerolla ja tunnuskirjaimella Q. Havaittu QNH:n arvo pyöristetään aina alaspäin lähimpään kokonaiseen hehtopascaliin, eli esimerkiksi ilmanpaine 995.5 hPa ilmoitetaan Metarissa ja radiojaksolla lentäjälle vain arvona 995, koska lentokoneiden korkeusmittareiden asteikko on vain täysiä lukuja sisältävä.

Esimerkkejä ilmanpaineen ilmoittamisesta:

Lisäesimerkkejä:

EFVA 041250Z 02010KT 340V050 CAVOK 19/07 Q1020 EFPO 041320Z 03005KT 350V100 9999 FEW025 BKN078 19/10 Q1019 Page generated in 0.68 seconds.